sensor_id;sensor_type;location;lat;lon;timestamp;temperature;humidity
5899;DHT22;2975;50.956;6.962;2023-01-09T00:00:25;9.20;99.90
5899;DHT22;2975;50.956;6.962;2023-01-09T00:02:51;9.20;99.90
5899;DHT22;2975;50.956;6.962;2023-01-09T00:05:18;9.20;99.90
5899;DHT22;2975;50.956;6.962;2023-01-09T00:07:44;9.20;99.90
5899;DHT22;2975;50.956;6.962;2023-01-09T00:10:10;9.10;99.90
5899;DHT22;2975;50.956;6.962;2023-01-09T00:12:36;9.00;99.90
5899;DHT22;2975;50.956;6.962;2023-01-09T00:15:03;8.90;99.90
5899;DHT22;2975;50.956;6.962;2023-01-09T00:17:29;8.90;99.90
5899;DHT22;2975;50.956;6.962;2023-01-09T00:19:55;8.90;99.90
5899;DHT22;2975;50.956;6.962;2023-01-09T00:22:21;8.90;99.90
5899;DHT22;2975;50.956;6.962;2023-01-09T00:24:46;8.80;99.90
5899;DHT22;2975;50.956;6.962;2023-01-09T00:27:12;8.80;99.90
5899;DHT22;2975;50.956;6.962;2023-01-09T00:29:39;8.80;99.90
5899;DHT22;2975;50.956;6.962;2023-01-09T00:32:07;8.80;99.90
5899;DHT22;2975;50.956;6.962;2023-01-09T00:34:35;8.70;99.90
5899;DHT22;2975;50.956;6.962;2023-01-09T00:37:02;8.70;99.90
5899;DHT22;2975;50.956;6.962;2023-01-09T00:39:28;8.70;99.90
5899;DHT22;2975;50.956;6.962;2023-01-09T00:41:55;8.70;99.90
5899;DHT22;2975;50.956;6.962;2023-01-09T00:44:46;8.60;99.90
5899;DHT22;2975;50.956;6.962;2023-01-09T00:47:26;8.60;99.90
5899;DHT22;2975;50.956;6.962;2023-01-09T00:49:53;8.50;99.90
5899;DHT22;2975;50.956;6.962;2023-01-09T00:52:20;8.50;99.90
5899;DHT22;2975;50.956;6.962;2023-01-09T00:54:46;8.60;99.90
5899;DHT22;2975;50.956;6.962;2023-01-09T00:57:12;8.60;99.90
5899;DHT22;2975;50.956;6.962;2023-01-09T00:59:40;8.60;99.90
5899;DHT22;2975;50.956;6.962;2023-01-09T01:02:05;8.50;99.90
5899;DHT22;2975;50.956;6.962;2023-01-09T01:04:31;8.50;99.90
5899;DHT22;2975;50.956;6.962;2023-01-09T01:07:15;8.40;99.90
5899;DHT22;2975;50.956;6.962;2023-01-09T01:09:59;8.40;99.90
5899;DHT22;2975;50.956;6.962;2023-01-09T01:12:25;8.50;99.90
5899;DHT22;2975;50.956;6.962;2023-01-09T01:14:51;8.50;99.90
5899;DHT22;2975;50.956;6.962;2023-01-09T01:17:17;8.40;99.90
5899;DHT22;2975;50.956;6.962;2023-01-09T01:19:43;8.30;99.90
5899;DHT22;2975;50.956;6.962;2023-01-09T01:22:08;8.30;99.90
5899;DHT22;2975;50.956;6.962;2023-01-09T01:24:34;8.30;99.90
5899;DHT22;2975;50.956;6.962;2023-01-09T01:27:00;8.20;99.90
5899;DHT22;2975;50.956;6.962;2023-01-09T01:29:26;8.20;99.90
5899;DHT22;2975;50.956;6.962;2023-01-09T01:31:51;8.10;99.90
5899;DHT22;2975;50.956;6.962;2023-01-09T01:34:17;8.10;99.90
5899;DHT22;2975;50.956;6.962;2023-01-09T01:36:42;8.00;99.90
5899;DHT22;2975;50.956;6.962;2023-01-09T01:39:08;8.00;99.90
5899;DHT22;2975;50.956;6.962;2023-01-09T01:41:34;8.00;99.90
5899;DHT22;2975;50.956;6.962;2023-01-09T01:44:05;7.90;99.90
5899;DHT22;2975;50.956;6.962;2023-01-09T01:46:33;7.90;99.90
5899;DHT22;2975;50.956;6.962;2023-01-09T01:49:17;7.90;99.90
5899;DHT22;2975;50.956;6.962;2023-01-09T01:51:47;7.90;99.90
5899;DHT22;2975;50.956;6.962;2023-01-09T01:54:22;7.80;99.90
5899;DHT22;2975;50.956;6.962;2023-01-09T01:56:51;7.80;99.90
5899;DHT22;2975;50.956;6.962;2023-01-09T01:59:48;7.90;99.90
5899;DHT22;2975;50.956;6.962;2023-01-09T02:02:19;7.90;99.90
5899;DHT22;2975;50.956;6.962;2023-01-09T02:04:46;7.90;99.90
5899;DHT22;2975;50.956;6.962;2023-01-09T02:07:13;8.00;99.90
5899;DHT22;2975;50.956;6.962;2023-01-09T02:09:39;7.90;99.90
5899;DHT22;2975;50.956;6.962;2023-01-09T02:12:20;7.80;99.90
5899;DHT22;2975;50.956;6.962;2023-01-09T02:14:56;7.80;99.90
5899;DHT22;2975;50.956;6.962;2023-01-09T02:31:56;7.50;99.90
5899;DHT22;2975;50.956;6.962;2023-01-09T02:42:22;7.30;99.90
5899;DHT22;2975;50.956;6.962;2023-01-09T02:44:48;7.20;99.90
5899;DHT22;2975;50.956;6.962;2023-01-09T02:49:42;7.20;99.90
5899;DHT22;2975;50.956;6.962;2023-01-09T02:52:20;7.20;99.90
5899;DHT22;2975;50.956;6.962;2023-01-09T02:58:09;7.40;99.90
5899;DHT22;2975;50.956;6.962;2023-01-09T03:05:55;7.60;99.90
5899;DHT22;2975;50.956;6.962;2023-01-09T03:08:32;7.70;99.90
5899;DHT22;2975;50.956;6.962;2023-01-09T03:11:02;7.70;99.90
5899;DHT22;2975;50.956;6.962;2023-01-09T03:13:55;7.80;99.90
5899;DHT22;2975;50.956;6.962;2023-01-09T03:16:32;7.90;99.90
5899;DHT22;2975;50.956;6.962;2023-01-09T03:19:00;7.90;99.90
5899;DHT22;2975;50.956;6.962;2023-01-09T03:21:26;7.90;99.90
5899;DHT22;2975;50.956;6.962;2023-01-09T03:23:58;7.90;99.90
5899;DHT22;2975;50.956;6.962;2023-01-09T03:26:24;7.70;99.90
5899;DHT22;2975;50.956;6.962;2023-01-09T03:28:50;7.60;99.90
5899;DHT22;2975;50.956;6.962;2023-01-09T03:31:16;7.50;99.90
5899;DHT22;2975;50.956;6.962;2023-01-09T03:33:42;7.40;99.90
5899;DHT22;2975;50.956;6.962;2023-01-09T03:36:09;7.30;99.90
5899;DHT22;2975;50.956;6.962;2023-01-09T03:38:35;7.20;99.90
5899;DHT22;2975;50.956;6.962;2023-01-09T03:41:00;7.10;99.90
5899;DHT22;2975;50.956;6.962;2023-01-09T03:43:26;7.00;99.90
5899;DHT22;2975;50.956;6.962;2023-01-09T03:45:52;6.90;99.90
5899;DHT22;2975;50.956;6.962;2023-01-09T03:48:17;6.90;99.90
5899;DHT22;2975;50.956;6.962;2023-01-09T03:50:43;6.90;99.90
5899;DHT22;2975;50.956;6.962;2023-01-09T03:53:11;6.90;99.90
5899;DHT22;2975;50.956;6.962;2023-01-09T03:55:44;6.80;99.90
5899;DHT22;2975;50.956;6.962;2023-01-09T03:58:09;6.70;99.90
5899;DHT22;2975;50.956;6.962;2023-01-09T04:00:36;6.60;99.90
5899;DHT22;2975;50.956;6.962;2023-01-09T04:03:03;6.50;99.90
5899;DHT22;2975;50.956;6.962;2023-01-09T04:05:29;6.50;99.90
5899;DHT22;2975;50.956;6.962;2023-01-09T04:07:55;6.40;99.90
5899;DHT22;2975;50.956;6.962;2023-01-09T04:10:21;6.30;99.90
5899;DHT22;2975;50.956;6.962;2023-01-09T04:12:46;6.40;99.90
5899;DHT22;2975;50.956;6.962;2023-01-09T04:15:12;6.30;99.90
5899;DHT22;2975;50.956;6.962;2023-01-09T04:17:38;6.30;99.90
5899;DHT22;2975;50.956;6.962;2023-01-09T04:20:03;6.20;99.90
5899;DHT22;2975;50.956;6.962;2023-01-09T04:22:29;6.10;99.90
5899;DHT22;2975;50.956;6.962;2023-01-09T04:24:56;6.00;99.90
5899;DHT22;2975;50.956;6.962;2023-01-09T04:27:22;5.90;99.90
5899;DHT22;2975;50.956;6.962;2023-01-09T04:29:47;5.90;99.90
5899;DHT22;2975;50.956;6.962;2023-01-09T04:32:13;5.80;99.90
5899;DHT22;2975;50.956;6.962;2023-01-09T04:34:39;5.70;99.90
5899;DHT22;2975;50.956;6.962;2023-01-09T04:37:04;5.70;99.90
5899;DHT22;2975;50.956;6.962;2023-01-09T04:39:30;5.70;99.90
5899;DHT22;2975;50.956;6.962;2023-01-09T04:41:56;5.70;99.90
5899;DHT22;2975;50.956;6.962;2023-01-09T04:44:23;5.60;99.90
5899;DHT22;2975;50.956;6.962;2023-01-09T04:46:53;5.60;99.90
5899;DHT22;2975;50.956;6.962;2023-01-09T04:49:19;5.60;99.90
5899;DHT22;2975;50.956;6.962;2023-01-09T04:51:45;5.60;99.90
5899;DHT22;2975;50.956;6.962;2023-01-09T04:54:11;5.80;99.90
5899;DHT22;2975;50.956;6.962;2023-01-09T04:56:37;5.90;99.90
5899;DHT22;2975;50.956;6.962;2023-01-09T04:59:04;6.10;99.90
5899;DHT22;2975;50.956;6.962;2023-01-09T05:01:31;6.30;99.90
5899;DHT22;2975;50.956;6.962;2023-01-09T05:03:56;6.40;99.90
5899;DHT22;2975;50.956;6.962;2023-01-09T05:06:22;6.50;99.90
5899;DHT22;2975;50.956;6.962;2023-01-09T05:08:48;6.60;99.90
5899;DHT22;2975;50.956;6.962;2023-01-09T05:11:14;6.70;99.90
5899;DHT22;2975;50.956;6.962;2023-01-09T05:13:40;6.80;99.90
5899;DHT22;2975;50.956;6.962;2023-01-09T05:16:05;6.90;99.90
5899;DHT22;2975;50.956;6.962;2023-01-09T05:18:31;6.90;99.90
5899;DHT22;2975;50.956;6.962;2023-01-09T05:20:57;7.00;99.90
5899;DHT22;2975;50.956;6.962;2023-01-09T05:23:22;7.10;99.90
5899;DHT22;2975;50.956;6.962;2023-01-09T05:25:48;7.10;99.90
5899;DHT22;2975;50.956;6.962;2023-01-09T05:28:14;7.20;99.90
5899;DHT22;2975;50.956;6.962;2023-01-09T05:30:40;7.20;99.90
5899;DHT22;2975;50.956;6.962;2023-01-09T05:33:05;7.30;99.90
5899;DHT22;2975;50.956;6.962;2023-01-09T05:35:31;7.30;99.90
5899;DHT22;2975;50.956;6.962;2023-01-09T05:37:56;7.30;99.90
5899;DHT22;2975;50.956;6.962;2023-01-09T05:40:22;7.30;99.90
5899;DHT22;2975;50.956;6.962;2023-01-09T05:42:48;7.40;99.90
5899;DHT22;2975;50.956;6.962;2023-01-09T05:45:13;7.40;99.90
5899;DHT22;2975;50.956;6.962;2023-01-09T05:47:39;7.40;99.90
5899;DHT22;2975;50.956;6.962;2023-01-09T05:50:05;7.40;99.90
5899;DHT22;2975;50.956;6.962;2023-01-09T05:52:31;7.50;99.90
5899;DHT22;2975;50.956;6.962;2023-01-09T05:54:56;7.50;99.90
5899;DHT22;2975;50.956;6.962;2023-01-09T05:57:22;7.60;99.90
5899;DHT22;2975;50.956;6.962;2023-01-09T05:59:47;7.60;99.90
5899;DHT22;2975;50.956;6.962;2023-01-09T06:02:13;7.60;99.90
5899;DHT22;2975;50.956;6.962;2023-01-09T06:04:39;7.60;99.90
5899;DHT22;2975;50.956;6.962;2023-01-09T06:07:04;7.70;99.90
5899;DHT22;2975;50.956;6.962;2023-01-09T06:09:30;7.70;99.90
5899;DHT22;2975;50.956;6.962;2023-01-09T06:11:56;7.70;99.90
5899;DHT22;2975;50.956;6.962;2023-01-09T06:14:22;7.70;99.90
5899;DHT22;2975;50.956;6.962;2023-01-09T06:16:47;7.80;99.90
5899;DHT22;2975;50.956;6.962;2023-01-09T06:19:13;7.80;99.90
5899;DHT22;2975;50.956;6.962;2023-01-09T06:21:39;7.80;99.90
5899;DHT22;2975;50.956;6.962;2023-01-09T06:24:04;7.70;99.90
5899;DHT22;2975;50.956;6.962;2023-01-09T06:26:30;7.80;99.90
5899;DHT22;2975;50.956;6.962;2023-01-09T06:28:56;7.80;99.90
5899;DHT22;2975;50.956;6.962;2023-01-09T06:31:23;8.00;99.90
5899;DHT22;2975;50.956;6.962;2023-01-09T06:33:49;7.90;99.90
5899;DHT22;2975;50.956;6.962;2023-01-09T06:36:15;7.90;99.90
5899;DHT22;2975;50.956;6.962;2023-01-09T06:38:41;8.00;99.90
5899;DHT22;2975;50.956;6.962;2023-01-09T06:41:06;8.00;99.90
5899;DHT22;2975;50.956;6.962;2023-01-09T06:43:32;8.00;99.90
5899;DHT22;2975;50.956;6.962;2023-01-09T06:45:58;8.00;99.90
5899;DHT22;2975;50.956;6.962;2023-01-09T06:48:23;8.10;99.90
5899;DHT22;2975;50.956;6.962;2023-01-09T06:50:50;8.10;99.90
5899;DHT22;2975;50.956;6.962;2023-01-09T06:53:16;8.00;99.90
5899;DHT22;2975;50.956;6.962;2023-01-09T06:55:42;8.00;99.90
5899;DHT22;2975;50.956;6.962;2023-01-09T06:58:08;8.00;99.90
5899;DHT22;2975;50.956;6.962;2023-01-09T07:00:34;8.10;99.90
5899;DHT22;2975;50.956;6.962;2023-01-09T07:03:00;8.10;99.90
5899;DHT22;2975;50.956;6.962;2023-01-09T07:05:25;8.10;99.90
5899;DHT22;2975;50.956;6.962;2023-01-09T07:07:51;8.10;99.90
5899;DHT22;2975;50.956;6.962;2023-01-09T07:10:17;8.10;99.90
5899;DHT22;2975;50.956;6.962;2023-01-09T07:12:43;8.00;99.90
5899;DHT22;2975;50.956;6.962;2023-01-09T07:15:09;8.00;99.90
5899;DHT22;2975;50.956;6.962;2023-01-09T07:17:34;8.00;99.90
5899;DHT22;2975;50.956;6.962;2023-01-09T07:20:00;8.10;99.90
5899;DHT22;2975;50.956;6.962;2023-01-09T07:22:26;8.10;99.90
5899;DHT22;2975;50.956;6.962;2023-01-09T07:24:51;8.00;99.90
5899;DHT22;2975;50.956;6.962;2023-01-09T07:27:17;8.10;99.90
5899;DHT22;2975;50.956;6.962;2023-01-09T07:29:42;8.20;99.90
5899;DHT22;2975;50.956;6.962;2023-01-09T07:32:08;8.20;99.90
5899;DHT22;2975;50.956;6.962;2023-01-09T07:34:34;8.20;99.90
5899;DHT22;2975;50.956;6.962;2023-01-09T07:36:59;8.20;99.90
5899;DHT22;2975;50.956;6.962;2023-01-09T07:39:26;8.20;99.90
5899;DHT22;2975;50.956;6.962;2023-01-09T07:41:51;8.30;99.90
5899;DHT22;2975;50.956;6.962;2023-01-09T07:44:17;8.20;99.90
5899;DHT22;2975;50.956;6.962;2023-01-09T07:46:43;8.30;99.90
5899;DHT22;2975;50.956;6.962;2023-01-09T07:49:09;8.30;99.90
5899;DHT22;2975;50.956;6.962;2023-01-09T07:51:34;8.30;99.90
5899;DHT22;2975;50.956;6.962;2023-01-09T07:54:00;8.30;99.90
5899;DHT22;2975;50.956;6.962;2023-01-09T07:56:25;8.40;99.90
5899;DHT22;2975;50.956;6.962;2023-01-09T07:58:51;8.40;99.90
5899;DHT22;2975;50.956;6.962;2023-01-09T08:01:17;8.40;99.90
5899;DHT22;2975;50.956;6.962;2023-01-09T08:03:42;8.40;99.90
5899;DHT22;2975;50.956;6.962;2023-01-09T08:06:08;8.40;99.90
5899;DHT22;2975;50.956;6.962;2023-01-09T08:08:34;8.40;99.90
5899;DHT22;2975;50.956;6.962;2023-01-09T08:11:00;8.50;99.90
5899;DHT22;2975;50.956;6.962;2023-01-09T08:13:25;8.40;99.90
5899;DHT22;2975;50.956;6.962;2023-01-09T08:15:51;8.50;99.90
5899;DHT22;2975;50.956;6.962;2023-01-09T08:18:17;8.50;99.90
5899;DHT22;2975;50.956;6.962;2023-01-09T08:20:42;8.50;99.90
5899;DHT22;2975;50.956;6.962;2023-01-09T08:23:08;8.60;99.90
5899;DHT22;2975;50.956;6.962;2023-01-09T08:25:33;8.50;99.90
5899;DHT22;2975;50.956;6.962;2023-01-09T08:27:59;8.50;99.90
5899;DHT22;2975;50.956;6.962;2023-01-09T08:30:24;8.50;99.90
5899;DHT22;2975;50.956;6.962;2023-01-09T08:32:52;8.50;99.90
5899;DHT22;2975;50.956;6.962;2023-01-09T08:35:18;8.50;99.90
5899;DHT22;2975;50.956;6.962;2023-01-09T08:37:44;8.60;99.90
5899;DHT22;2975;50.956;6.962;2023-01-09T08:40:12;8.60;99.90
5899;DHT22;2975;50.956;6.962;2023-01-09T08:42:37;8.60;99.90
5899;DHT22;2975;50.956;6.962;2023-01-09T08:45:22;8.60;99.90
5899;DHT22;2975;50.956;6.962;2023-01-09T08:48:06;8.80;99.90
5899;DHT22;2975;50.956;6.962;2023-01-09T08:50:32;8.80;99.90
5899;DHT22;2975;50.956;6.962;2023-01-09T08:52:57;8.90;99.90
5899;DHT22;2975;50.956;6.962;2023-01-09T08:55:23;8.80;99.90
5899;DHT22;2975;50.956;6.962;2023-01-09T08:57:50;8.80;99.90
5899;DHT22;2975;50.956;6.962;2023-01-09T09:00:23;8.80;99.90
5899;DHT22;2975;50.956;6.962;2023-01-09T09:02:53;8.90;99.90
5899;DHT22;2975;50.956;6.962;2023-01-09T09:05:20;8.90;99.90
5899;DHT22;2975;50.956;6.962;2023-01-09T09:07:47;8.90;99.90
5899;DHT22;2975;50.956;6.962;2023-01-09T09:10:15;8.80;99.90
5899;DHT22;2975;50.956;6.962;2023-01-09T09:12:42;8.80;99.90
5899;DHT22;2975;50.956;6.962;2023-01-09T09:15:08;8.80;99.90
5899;DHT22;2975;50.956;6.962;2023-01-09T09:17:38;8.80;99.90
5899;DHT22;2975;50.956;6.962;2023-01-09T09:20:06;8.80;99.90
5899;DHT22;2975;50.956;6.962;2023-01-09T09:22:31;8.80;99.90
5899;DHT22;2975;50.956;6.962;2023-01-09T09:24:57;8.80;99.90
5899;DHT22;2975;50.956;6.962;2023-01-09T09:27:23;8.80;99.90
5899;DHT22;2975;50.956;6.962;2023-01-09T09:29:48;8.80;99.90
5899;DHT22;2975;50.956;6.962;2023-01-09T09:32:14;8.80;99.90
5899;DHT22;2975;50.956;6.962;2023-01-09T09:34:40;8.80;99.90
5899;DHT22;2975;50.956;6.962;2023-01-09T09:37:05;8.80;99.90
5899;DHT22;2975;50.956;6.962;2023-01-09T09:39:31;8.90;99.90
5899;DHT22;2975;50.956;6.962;2023-01-09T09:48:22;8.90;99.90
5899;DHT22;2975;50.956;6.962;2023-01-09T09:50:57;8.90;99.90
5899;DHT22;2975;50.956;6.962;2023-01-09T09:55:56;8.90;99.90
5899;DHT22;2975;50.956;6.962;2023-01-09T09:58:59;8.90;99.90
5899;DHT22;2975;50.956;6.962;2023-01-09T10:02:02;8.90;99.90
5899;DHT22;2975;50.956;6.962;2023-01-09T10:04:31;9.00;99.90
5899;DHT22;2975;50.956;6.962;2023-01-09T10:07:04;9.10;99.90
5899;DHT22;2975;50.956;6.962;2023-01-09T10:09:48;9.20;99.90
5899;DHT22;2975;50.956;6.962;2023-01-09T10:12:43;9.10;99.90
5899;DHT22;2975;50.956;6.962;2023-01-09T10:15:18;9.10;99.90
5899;DHT22;2975;50.956;6.962;2023-01-09T10:23:47;9.40;99.90
5899;DHT22;2975;50.956;6.962;2023-01-09T10:26:16;9.40;99.90
5899;DHT22;2975;50.956;6.962;2023-01-09T10:34:18;9.60;99.90
5899;DHT22;2975;50.956;6.962;2023-01-09T10:39:32;9.70;99.90
5899;DHT22;2975;50.956;6.962;2023-01-09T10:42:08;9.70;99.90
5899;DHT22;2975;50.956;6.962;2023-01-09T10:44:45;9.70;99.90
5899;DHT22;2975;50.956;6.962;2023-01-09T10:47:19;9.70;99.90
5899;DHT22;2975;50.956;6.962;2023-01-09T10:49:46;9.70;99.90
5899;DHT22;2975;50.956;6.962;2023-01-09T10:52:18;9.80;99.90
5899;DHT22;2975;50.956;6.962;2023-01-09T10:54:55;9.90;99.90
5899;DHT22;2975;50.956;6.962;2023-01-09T10:57:57;9.80;99.90
5899;DHT22;2975;50.956;6.962;2023-01-09T11:00:18;9.80;99.90
5899;DHT22;2975;50.956;6.962;2023-01-09T11:02:44;9.80;99.90
5899;DHT22;2975;50.956;6.962;2023-01-09T11:05:23;9.80;99.90
5899;DHT22;2975;50.956;6.962;2023-01-09T11:07:54;9.90;99.90
5899;DHT22;2975;50.956;6.962;2023-01-09T11:10:21;10.00;99.90
5899;DHT22;2975;50.956;6.962;2023-01-09T11:12:46;10.00;99.90
5899;DHT22;2975;50.956;6.962;2023-01-09T11:17:41;10.10;99.90
5899;DHT22;2975;50.956;6.962;2023-01-09T11:20:26;10.10;99.90
5899;DHT22;2975;50.956;6.962;2023-01-09T11:22:57;10.00;99.90
5899;DHT22;2975;50.956;6.962;2023-01-09T11:25:25;10.00;99.90
5899;DHT22;2975;50.956;6.962;2023-01-09T11:28:06;9.90;99.90
5899;DHT22;2975;50.956;6.962;2023-01-09T11:30:36;9.90;99.90
5899;DHT22;2975;50.956;6.962;2023-01-09T11:33:20;9.90;99.90
5899;DHT22;2975;50.956;6.962;2023-01-09T11:35:53;9.80;99.90
5899;DHT22;2975;50.956;6.962;2023-01-09T11:38:20;9.80;99.90
5899;DHT22;2975;50.956;6.962;2023-01-09T11:40:49;9.70;99.90
5899;DHT22;2975;50.956;6.962;2023-01-09T11:43:34;9.60;99.90
5899;DHT22;2975;50.956;6.962;2023-01-09T11:46:09;9.60;99.90
5899;DHT22;2975;50.956;6.962;2023-01-09T11:48:54;9.60;99.90
5899;DHT22;2975;50.956;6.962;2023-01-09T11:51:25;9.70;99.90
5899;DHT22;2975;50.956;6.962;2023-01-09T11:56:25;9.70;99.90
5899;DHT22;2975;50.956;6.962;2023-01-09T11:58:51;9.70;99.90
5899;DHT22;2975;50.956;6.962;2023-01-09T12:09:38;9.60;99.90
5899;DHT22;2975;50.956;6.962;2023-01-09T12:18:01;9.70;99.90
5899;DHT22;2975;50.956;6.962;2023-01-09T12:26:10;9.50;99.90
5899;DHT22;2975;50.956;6.962;2023-01-09T12:31:49;9.30;99.90
5899;DHT22;2975;50.956;6.962;2023-01-09T12:56:57;10.20;99.90
5899;DHT22;2975;50.956;6.962;2023-01-09T12:59:47;10.20;99.90
5899;DHT22;2975;50.956;6.962;2023-01-09T13:02:29;10.20;99.90
5899;DHT22;2975;50.956;6.962;2023-01-09T13:05:05;10.20;99.90
5899;DHT22;2975;50.956;6.962;2023-01-09T13:07:43;10.10;99.90
5899;DHT22;2975;50.956;6.962;2023-01-09T13:10:22;10.10;99.90
5899;DHT22;2975;50.956;6.962;2023-01-09T13:12:50;10.10;99.90
5899;DHT22;2975;50.956;6.962;2023-01-09T13:17:54;10.10;99.90
5899;DHT22;2975;50.956;6.962;2023-01-09T13:20:48;10.00;99.90
5899;DHT22;2975;50.956;6.962;2023-01-09T13:26:20;10.20;99.90
5899;DHT22;2975;50.956;6.962;2023-01-09T13:28:52;10.30;99.90
5899;DHT22;2975;50.956;6.962;2023-01-09T13:34:05;10.40;99.90
5899;DHT22;2975;50.956;6.962;2023-01-09T13:36:39;10.30;99.90
5899;DHT22;2975;50.956;6.962;2023-01-09T13:39:19;10.30;99.90
5899;DHT22;2975;50.956;6.962;2023-01-09T13:41:49;10.30;99.90
5899;DHT22;2975;50.956;6.962;2023-01-09T13:44:34;10.30;99.90
5899;DHT22;2975;50.956;6.962;2023-01-09T13:47:01;10.30;99.90
5899;DHT22;2975;50.956;6.962;2023-01-09T13:52:04;10.20;99.90
5899;DHT22;2975;50.956;6.962;2023-01-09T13:59:45;10.10;99.90
5899;DHT22;2975;50.956;6.962;2023-01-09T14:05:01;10.10;99.90
5899;DHT22;2975;50.956;6.962;2023-01-09T14:07:28;10.10;99.90
5899;DHT22;2975;50.956;6.962;2023-01-09T14:09:57;10.00;99.90
5899;DHT22;2975;50.956;6.962;2023-01-09T14:12:24;9.90;99.90
5899;DHT22;2975;50.956;6.962;2023-01-09T14:14:52;9.80;99.90
5899;DHT22;2975;50.956;6.962;2023-01-09T14:17:45;9.70;99.90
5899;DHT22;2975;50.956;6.962;2023-01-09T14:20:24;9.60;99.90
5899;DHT22;2975;50.956;6.962;2023-01-09T14:22:58;9.50;99.90
5899;DHT22;2975;50.956;6.962;2023-01-09T14:25:28;9.50;99.90
5899;DHT22;2975;50.956;6.962;2023-01-09T14:33:04;9.40;99.90
5899;DHT22;2975;50.956;6.962;2023-01-09T14:36:15;9.40;99.90
5899;DHT22;2975;50.956;6.962;2023-01-09T14:38:48;9.30;99.90
5899;DHT22;2975;50.956;6.962;2023-01-09T14:41:43;9.30;99.90
5899;DHT22;2975;50.956;6.962;2023-01-09T14:46:54;9.40;99.90
5899;DHT22;2975;50.956;6.962;2023-01-09T14:49:36;9.30;99.90
5899;DHT22;2975;50.956;6.962;2023-01-09T14:52:14;9.30;99.90
5899;DHT22;2975;50.956;6.962;2023-01-09T14:54:42;9.30;99.90
5899;DHT22;2975;50.956;6.962;2023-01-09T14:57:33;9.30;99.90
5899;DHT22;2975;50.956;6.962;2023-01-09T15:00:14;9.20;99.90
5899;DHT22;2975;50.956;6.962;2023-01-09T15:02:40;9.20;99.90
5899;DHT22;2975;50.956;6.962;2023-01-09T15:05:10;9.20;99.90
5899;DHT22;2975;50.956;6.962;2023-01-09T15:07:49;9.20;99.90
5899;DHT22;2975;50.956;6.962;2023-01-09T15:10:36;9.20;99.90
5899;DHT22;2975;50.956;6.962;2023-01-09T15:13:05;9.20;99.90
5899;DHT22;2975;50.956;6.962;2023-01-09T15:15:34;9.10;99.90
5899;DHT22;2975;50.956;6.962;2023-01-09T15:18:06;9.10;99.90
5899;DHT22;2975;50.956;6.962;2023-01-09T15:20:33;9.10;99.90
5899;DHT22;2975;50.956;6.962;2023-01-09T15:23:00;9.00;99.90
5899;DHT22;2975;50.956;6.962;2023-01-09T15:25:34;9.00;99.90
5899;DHT22;2975;50.956;6.962;2023-01-09T15:28:14;9.00;99.90
5899;DHT22;2975;50.956;6.962;2023-01-09T15:30:44;9.00;99.90
5899;DHT22;2975;50.956;6.962;2023-01-09T15:33:14;9.00;99.90
5899;DHT22;2975;50.956;6.962;2023-01-09T15:35:45;8.80;99.90
5899;DHT22;2975;50.956;6.962;2023-01-09T15:38:17;8.90;99.90
5899;DHT22;2975;50.956;6.962;2023-01-09T15:40:56;8.80;99.90
5899;DHT22;2975;50.956;6.962;2023-01-09T15:43:23;8.80;99.90
5899;DHT22;2975;50.956;6.962;2023-01-09T15:45:49;8.90;99.90
5899;DHT22;2975;50.956;6.962;2023-01-09T15:50:40;8.80;99.90
5899;DHT22;2975;50.956;6.962;2023-01-09T15:53:15;8.80;99.90
5899;DHT22;2975;50.956;6.962;2023-01-09T15:55:41;8.80;99.90
5899;DHT22;2975;50.956;6.962;2023-01-09T15:58:27;8.70;99.90
5899;DHT22;2975;50.956;6.962;2023-01-09T16:01:18;8.70;99.90
5899;DHT22;2975;50.956;6.962;2023-01-09T16:03:46;8.60;99.90
5899;DHT22;2975;50.956;6.962;2023-01-09T16:06:26;8.60;99.90
5899;DHT22;2975;50.956;6.962;2023-01-09T16:08:53;8.60;99.90
5899;DHT22;2975;50.956;6.962;2023-01-09T16:11:45;8.50;99.90
5899;DHT22;2975;50.956;6.962;2023-01-09T16:16:48;8.50;99.90
5899;DHT22;2975;50.956;6.962;2023-01-09T16:19:42;8.50;99.90
5899;DHT22;2975;50.956;6.962;2023-01-09T16:22:35;8.40;99.90
5899;DHT22;2975;50.956;6.962;2023-01-09T16:28:07;8.40;99.90
5899;DHT22;2975;50.956;6.962;2023-01-09T16:30:33;8.40;99.90
5899;DHT22;2975;50.956;6.962;2023-01-09T16:32:59;8.30;99.90
5899;DHT22;2975;50.956;6.962;2023-01-09T16:35:27;8.30;99.90
5899;DHT22;2975;50.956;6.962;2023-01-09T16:37:52;8.20;99.90
5899;DHT22;2975;50.956;6.962;2023-01-09T16:40:22;8.10;99.90
5899;DHT22;2975;50.956;6.962;2023-01-09T16:42:54;8.10;99.90
5899;DHT22;2975;50.956;6.962;2023-01-09T16:45:39;8.10;99.90
5899;DHT22;2975;50.956;6.962;2023-01-09T16:48:23;8.00;99.90
5899;DHT22;2975;50.956;6.962;2023-01-09T16:50:49;8.00;99.90
5899;DHT22;2975;50.956;6.962;2023-01-09T16:53:20;7.90;99.90
5899;DHT22;2975;50.956;6.962;2023-01-09T16:55:49;7.90;99.90
5899;DHT22;2975;50.956;6.962;2023-01-09T16:58:18;7.90;99.90
5899;DHT22;2975;50.956;6.962;2023-01-09T17:00:48;7.90;99.90
5899;DHT22;2975;50.956;6.962;2023-01-09T17:03:14;7.90;99.90
5899;DHT22;2975;50.956;6.962;2023-01-09T17:05:40;7.90;99.90
5899;DHT22;2975;50.956;6.962;2023-01-09T17:08:29;7.90;99.90
5899;DHT22;2975;50.956;6.962;2023-01-09T17:10:56;7.90;99.90
5899;DHT22;2975;50.956;6.962;2023-01-09T17:13:22;7.90;99.90
5899;DHT22;2975;50.956;6.962;2023-01-09T17:15:48;7.80;99.90
5899;DHT22;2975;50.956;6.962;2023-01-09T17:18:15;7.70;99.90
5899;DHT22;2975;50.956;6.962;2023-01-09T17:20:44;7.70;99.90
5899;DHT22;2975;50.956;6.962;2023-01-09T17:23:10;7.60;99.90
5899;DHT22;2975;50.956;6.962;2023-01-09T17:25:37;7.50;99.90
5899;DHT22;2975;50.956;6.962;2023-01-09T17:28:21;7.50;99.90
5899;DHT22;2975;50.956;6.962;2023-01-09T17:31:00;7.40;99.90
5899;DHT22;2975;50.956;6.962;2023-01-09T17:33:27;7.30;99.90
5899;DHT22;2975;50.956;6.962;2023-01-09T17:35:52;7.20;99.90
5899;DHT22;2975;50.956;6.962;2023-01-09T17:38:18;7.30;99.90
5899;DHT22;2975;50.956;6.962;2023-01-09T17:40:44;7.30;99.90
5899;DHT22;2975;50.956;6.962;2023-01-09T17:43:10;7.30;99.90
5899;DHT22;2975;50.956;6.962;2023-01-09T17:45:37;7.30;99.90
5899;DHT22;2975;50.956;6.962;2023-01-09T17:48:05;7.30;99.90
5899;DHT22;2975;50.956;6.962;2023-01-09T17:50:31;7.20;99.90
5899;DHT22;2975;50.956;6.962;2023-01-09T17:52:59;7.20;99.90
5899;DHT22;2975;50.956;6.962;2023-01-09T17:55:24;7.20;99.90
5899;DHT22;2975;50.956;6.962;2023-01-09T17:57:50;7.20;99.90
5899;DHT22;2975;50.956;6.962;2023-01-09T18:00:25;7.10;99.90
5899;DHT22;2975;50.956;6.962;2023-01-09T18:02:52;7.10;99.90
5899;DHT22;2975;50.956;6.962;2023-01-09T18:05:18;7.10;99.90
5899;DHT22;2975;50.956;6.962;2023-01-09T18:07:44;7.10;99.90
5899;DHT22;2975;50.956;6.962;2023-01-09T18:10:13;7.10;99.90
5899;DHT22;2975;50.956;6.962;2023-01-09T18:12:39;7.10;99.90
5899;DHT22;2975;50.956;6.962;2023-01-09T18:15:05;7.20;99.90
5899;DHT22;2975;50.956;6.962;2023-01-09T18:17:31;7.20;99.90
5899;DHT22;2975;50.956;6.962;2023-01-09T18:19:56;7.20;99.90
5899;DHT22;2975;50.956;6.962;2023-01-09T18:22:22;7.30;99.90
5899;DHT22;2975;50.956;6.962;2023-01-09T18:24:47;7.30;99.90
5899;DHT22;2975;50.956;6.962;2023-01-09T18:27:13;7.40;99.90
5899;DHT22;2975;50.956;6.962;2023-01-09T18:29:38;7.40;99.90
5899;DHT22;2975;50.956;6.962;2023-01-09T18:32:04;7.40;99.90
5899;DHT22;2975;50.956;6.962;2023-01-09T18:34:30;7.40;99.90
5899;DHT22;2975;50.956;6.962;2023-01-09T18:36:55;7.40;99.90
5899;DHT22;2975;50.956;6.962;2023-01-09T18:39:21;7.40;99.90
5899;DHT22;2975;50.956;6.962;2023-01-09T18:41:46;7.40;99.90
5899;DHT22;2975;50.956;6.962;2023-01-09T18:44:12;7.40;99.90
5899;DHT22;2975;50.956;6.962;2023-01-09T18:46:38;7.50;99.90
5899;DHT22;2975;50.956;6.962;2023-01-09T18:49:05;7.50;99.90
5899;DHT22;2975;50.956;6.962;2023-01-09T18:51:33;7.60;99.90
5899;DHT22;2975;50.956;6.962;2023-01-09T18:53:59;7.60;99.90